createdAt,value
2022-09-23T00:01:43.966Z,99178.00
2022-09-23T00:04:10.949Z,99174.50
2022-09-23T00:06:37.518Z,99172.66
2022-09-23T00:09:04.130Z,99172.63
2022-09-23T00:11:30.716Z,99169.16
2022-09-23T00:13:59.221Z,99164.78
2022-09-23T00:16:28.470Z,99171.72
2022-09-23T00:18:55.361Z,99172.47
2022-09-23T00:21:22.375Z,99163.75
2022-09-23T00:23:49.418Z,99169.75
2022-09-23T00:26:19.043Z,99168.94
2022-09-23T00:28:45.994Z,99175.03
2022-09-23T00:31:17.339Z,99170.81
2022-09-23T00:33:44.205Z,99171.66
2022-09-23T00:36:12.671Z,99174.22
2022-09-23T00:38:39.276Z,99173.22
2022-09-23T00:41:17.302Z,99174.06
2022-09-23T00:43:48.560Z,99174.97
2022-09-23T00:46:19.953Z,99173.16
2022-09-23T00:48:48.461Z,99174.88
2022-09-23T00:51:18.258Z,99176.66
2022-09-23T00:53:47.107Z,99180.06
2022-09-23T00:56:14.025Z,99181.78
2022-09-23T00:58:42.443Z,99177.56
2022-09-23T01:01:09.154Z,99182.75
2022-09-23T01:03:35.791Z,99177.59
2022-09-23T01:06:02.322Z,99180.22
2022-09-23T01:08:29.053Z,99184.59
2022-09-23T01:10:55.585Z,99188.09
2022-09-23T01:13:48.134Z,99176.91
2022-09-23T01:16:14.712Z,99176.09
2022-09-23T01:18:47.037Z,99178.69
2022-09-23T01:21:27.995Z,99173.50
2022-09-23T01:24:13.176Z,99179.56
2022-09-23T01:26:48.577Z,99169.03
2022-09-23T01:29:50.793Z,99173.34
2022-09-23T01:32:20.197Z,99178.63
2022-09-23T01:35:04.117Z,99177.91
2022-09-23T01:37:39.757Z,99188.38
2022-09-23T01:40:22.674Z,99183.16
2022-09-23T01:42:58.315Z,99188.34
2022-09-23T01:45:36.200Z,99188.38
2022-09-23T01:48:10.512Z,99188.47
2022-09-23T01:50:57.892Z,99195.38
2022-09-23T01:53:28.389Z,99191.16
2022-09-23T01:55:57.914Z,99190.31
2022-09-23T01:58:27.096Z,99188.53
2022-09-23T02:01:05.106Z,99185.91
2022-09-23T02:03:45.205Z,99191.88
2022-09-23T02:06:15.052Z,99188.53
2022-09-23T02:08:52.300Z,99185.13
2022-09-23T02:11:19.103Z,99188.56
2022-09-23T02:13:45.611Z,99188.56
2022-09-23T02:16:16.372Z,99198.13
2022-09-23T02:18:49.081Z,99192.16
2022-09-23T02:21:17.905Z,99192.22
2022-09-23T02:23:59.395Z,99191.34
2022-09-23T02:26:49.386Z,99187.06
2022-09-23T02:29:21.547Z,99193.09
2022-09-23T02:31:51.156Z,99192.22
2022-09-23T02:34:17.889Z,99192.09
2022-09-23T02:36:56.242Z,99188.66
2022-09-23T02:39:24.352Z,99190.41
2022-09-23T02:42:02.297Z,99188.72
2022-09-23T02:44:29.018Z,99184.44
2022-09-23T02:46:57.839Z,99188.78
2022-09-23T02:49:29.352Z,99181.03
2022-09-23T02:51:56.666Z,99185.28
2022-09-23T02:54:25.737Z,99182.66
2022-09-23T02:56:53.414Z,99192.09
2022-09-23T02:59:21.726Z,99191.28
2022-09-23T03:01:52.916Z,99192.13
2022-09-23T03:04:38.486Z,99185.22
2022-09-23T03:07:10.784Z,99186.94
2022-09-23T03:09:43.241Z,99188.69
2022-09-23T03:12:16.427Z,99192.19
2022-09-23T03:14:49.561Z,99188.72
2022-09-23T03:17:25.861Z,99186.91
2022-09-23T03:19:56.722Z,99192.91
2022-09-23T03:22:27.553Z,99190.25
2022-09-23T03:24:55.457Z,99194.53
2022-09-23T03:27:25.718Z,99188.47
2022-09-23T03:29:53.765Z,99194.50
2022-09-23T03:32:23.099Z,99191.88
2022-09-23T03:34:51.555Z,99193.56
2022-09-23T03:37:40.051Z,99187.53
2022-09-23T03:40:07.115Z,99190.16
2022-09-23T03:42:34.335Z,99190.19
2022-09-23T03:45:04.656Z,99185.94
2022-09-23T03:47:31.295Z,99183.34
2022-09-23T03:49:57.934Z,99174.72
2022-09-23T03:52:25.043Z,99176.47
2022-09-23T03:54:52.292Z,99185.06
2022-09-23T03:57:19.153Z,99173.81
2022-09-23T03:59:45.778Z,99166.00
2022-09-23T04:02:12.558Z,99176.34
2022-09-23T04:04:40.264Z,99171.16
2022-09-23T04:07:06.990Z,99171.16
2022-09-23T04:09:33.632Z,99171.16
2022-09-23T04:12:00.936Z,99165.94
2022-09-23T04:14:27.705Z,99164.97
2022-09-23T04:16:54.303Z,99167.56
2022-09-23T04:19:21.092Z,99169.31
2022-09-23T04:21:47.954Z,99165.84
2022-09-23T04:24:15.841Z,99164.97
2022-09-23T04:26:42.634Z,99160.66
2022-09-23T04:29:10.658Z,99152.88
2022-09-23T04:31:37.454Z,99150.31
2022-09-23T04:34:04.065Z,99141.66
2022-09-23T04:36:31.180Z,99137.34
2022-09-23T04:38:57.798Z,99132.09
2022-09-23T04:41:27.542Z,99137.28
2022-09-23T04:43:54.238Z,99138.16
2022-09-23T04:46:20.968Z,99141.56
2022-09-23T04:48:47.625Z,99131.19
2022-09-23T04:51:15.719Z,99127.69
2022-09-23T04:53:43.235Z,99129.31
2022-09-23T04:56:11.779Z,99137.88
2022-09-23T04:58:38.954Z,99134.31
2022-09-23T05:01:11.978Z,99139.44
2022-09-23T05:03:38.853Z,99141.88
2022-09-23T05:06:05.821Z,99146.06
2022-09-23T05:08:32.419Z,99149.38
2022-09-23T05:10:59.759Z,99154.47
2022-09-23T05:13:26.439Z,99154.44
2022-09-23T05:15:58.950Z,99145.69
2022-09-23T05:18:25.555Z,99146.47
2022-09-23T05:20:55.567Z,99143.78
2022-09-23T05:23:23.230Z,99148.00
2022-09-23T05:25:56.388Z,99146.16
2022-09-23T05:28:23.018Z,99145.22
2022-09-23T05:30:49.609Z,99143.41
2022-09-23T05:33:16.194Z,99141.59
2022-09-23T05:35:48.887Z,99146.75
2022-09-23T05:38:16.853Z,99147.53
2022-09-23T05:40:43.739Z,99151.78
2022-09-23T05:43:10.753Z,99155.13
2022-09-23T05:45:37.410Z,99144.56
2022-09-23T05:48:04.148Z,99146.94
2022-09-23T05:50:30.763Z,99144.22
2022-09-23T05:52:57.326Z,99149.25
2022-09-23T05:55:23.966Z,99142.16
2022-09-23T05:57:50.520Z,99148.03
2022-09-23T06:00:17.612Z,99143.63
2022-09-23T06:02:44.307Z,99146.13
2022-09-23T06:05:12.221Z,99147.03
2022-09-23T06:07:39.014Z,99139.31
2022-09-23T06:10:06.638Z,99146.34
2022-09-23T06:12:33.461Z,99147.25
2022-09-23T06:15:00.660Z,99142.88
2022-09-23T06:17:27.313Z,99140.25
2022-09-23T06:19:53.921Z,99133.34
2022-09-23T06:22:20.551Z,99136.69
2022-09-23T06:24:47.118Z,99135.66
2022-09-23T06:27:13.678Z,99142.34
2022-09-23T06:29:40.285Z,99136.97
2022-09-23T06:32:06.867Z,99161.03
2022-09-23T06:34:46.075Z,99166.13
2022-09-23T06:37:20.454Z,99166.75
2022-09-23T06:39:47.495Z,99159.69
2022-09-23T06:42:15.921Z,99154.25
2022-09-23T06:44:42.919Z,99159.16
2022-09-23T06:47:09.573Z,99160.53
2022-09-23T06:49:36.266Z,99148.34
2022-09-23T06:52:02.911Z,99143.13
2022-09-23T06:54:30.831Z,99140.34
2022-09-23T06:56:57.427Z,99147.28
2022-09-23T06:59:25.053Z,99142.88
2022-09-23T07:01:51.788Z,99140.22
2022-09-23T07:04:18.409Z,99138.50
2022-09-23T07:06:45.067Z,99147.19
2022-09-23T07:09:12.372Z,99146.22
2022-09-23T07:11:39.791Z,99147.91
2022-09-23T07:14:06.488Z,99135.03
2022-09-23T07:16:33.645Z,99136.13
2022-09-23T07:19:00.255Z,99138.91
2022-09-23T07:21:27.942Z,99144.47
2022-09-23T07:23:55.330Z,99138.53
2022-09-23T07:26:22.878Z,99142.13
2022-09-23T07:28:53.760Z,99141.28
2022-09-23T07:31:33.656Z,99145.53
2022-09-23T07:34:03.728Z,99142.19
2022-09-23T07:36:32.906Z,99139.59
2022-09-23T07:39:03.860Z,99133.38
2022-09-23T07:41:31.252Z,99133.19
2022-09-23T07:44:01.309Z,99126.06
2022-09-23T07:46:29.339Z,99132.84
2022-09-23T07:48:56.049Z,99147.47
2022-09-23T07:51:24.177Z,99139.69
2022-09-23T07:53:52.256Z,99129.25
2022-09-23T07:56:19.946Z,99130.91
2022-09-23T07:59:00.329Z,99129.91
2022-09-23T08:01:29.566Z,99127.31
2022-09-23T08:04:00.114Z,99130.81
2022-09-23T08:06:26.842Z,99125.69
2022-09-23T08:08:53.742Z,99131.81
2022-09-23T08:11:20.438Z,99130.94
2022-09-23T08:13:47.695Z,99123.13
2022-09-23T08:16:14.425Z,99120.94
2022-09-23T08:18:43.840Z,99116.88
2022-09-23T08:21:10.447Z,99121.09
2022-09-23T08:23:37.126Z,99126.63
2022-09-23T08:26:05.406Z,99123.19
2022-09-23T08:28:33.826Z,99115.25
2022-09-23T08:31:01.011Z,99120.28
2022-09-23T08:33:27.859Z,99116.47
2022-09-23T08:35:59.167Z,99113.50
2022-09-23T08:38:25.801Z,99111.38
2022-09-23T08:40:52.905Z,99116.97
2022-09-23T08:43:27.170Z,99123.38
2022-09-23T08:45:55.423Z,99106.38
2022-09-23T08:48:29.491Z,99109.50
2022-09-23T08:51:00.101Z,99113.78
2022-09-23T08:53:28.768Z,99122.59
2022-09-23T08:55:58.184Z,99139.31
2022-09-23T08:58:45.170Z,99139.44
2022-09-23T09:01:14.603Z,99149.94
2022-09-23T09:04:00.319Z,99139.72
2022-09-23T09:06:41.846Z,99143.09
2022-09-23T09:09:23.590Z,99143.66
2022-09-23T09:11:52.404Z,99126.16
2022-09-23T09:14:30.993Z,99125.28
2022-09-23T09:17:01.512Z,99119.94
2022-09-23T09:19:40.832Z,99110.97
2022-09-23T09:22:13.222Z,99107.97
2022-09-23T09:24:40.178Z,99108.31
2022-09-23T09:27:13.333Z,99093.06
2022-09-23T09:29:42.901Z,99081.22
2022-09-23T09:32:33.814Z,99073.00
2022-09-23T09:35:05.673Z,99078.63
2022-09-23T09:37:39.593Z,99078.19
2022-09-23T09:40:08.996Z,99078.66
2022-09-23T09:42:40.477Z,99079.97
2022-09-23T09:45:19.939Z,99084.63
2022-09-23T09:48:20.871Z,99084.66
2022-09-23T09:50:49.222Z,99085.63
2022-09-23T09:53:24.824Z,99086.53
2022-09-23T09:56:05.359Z,99091.31
2022-09-23T09:58:34.702Z,99087.50
2022-09-23T10:01:01.937Z,99102.00
2022-09-23T10:03:34.452Z,99093.25
2022-09-23T10:06:12.926Z,99099.72
2022-09-23T10:08:39.641Z,99091.94
2022-09-23T10:11:16.442Z,99089.56
2022-09-23T10:14:01.511Z,99100.81
2022-09-23T10:16:31.825Z,99102.09
2022-09-23T10:19:13.224Z,99105.00
2022-09-23T10:21:42.373Z,99100.09
2022-09-23T10:24:20.683Z,99095.75
2022-09-23T10:27:13.642Z,99104.31
2022-09-23T10:29:46.496Z,99104.13
2022-09-23T10:32:18.635Z,99103.50
2022-09-23T10:34:46.777Z,99098.28
2022-09-23T10:37:15.494Z,99094.47
2022-09-23T10:40:01.070Z,99094.78
2022-09-23T10:43:05.202Z,99082.69
2022-09-23T10:45:57.177Z,99063.28
2022-09-23T10:48:36.187Z,99057.03
2022-09-23T10:51:14.549Z,99056.16
2022-09-23T10:53:42.117Z,99058.44
2022-09-23T10:56:21.012Z,99046.22
2022-09-23T10:58:53.773Z,99050.50
2022-09-23T11:01:20.465Z,99058.00
2022-09-23T11:03:58.415Z,99053.88
2022-09-23T11:06:34.526Z,99049.97
2022-09-23T11:09:07.552Z,99046.75
2022-09-23T11:11:37.320Z,99035.00
2022-09-23T11:14:07.013Z,99025.66
2022-09-23T11:16:39.150Z,99031.84
2022-09-23T11:19:11.923Z,99026.00
2022-09-23T11:21:44.594Z,99032.94
2022-09-23T11:24:29.998Z,99024.56
2022-09-23T11:27:16.060Z,99034.72
2022-09-23T11:30:01.553Z,99037.91
2022-09-23T11:32:51.330Z,99042.56
2022-09-23T11:35:36.933Z,99031.28
2022-09-23T11:38:03.663Z,99038.88
2022-09-23T11:40:31.843Z,99030.06
2022-09-23T11:43:06.437Z,99026.66
2022-09-23T11:45:45.221Z,99018.09
2022-09-23T11:48:15.622Z,99015.63
2022-09-23T11:50:47.552Z,99027.81
2022-09-23T11:53:14.195Z,99028.16
2022-09-23T11:55:55.986Z,99031.63
2022-09-23T11:58:29.437Z,99028.06
2022-09-23T12:01:08.923Z,99035.81
2022-09-23T12:03:49.580Z,99024.47
2022-09-23T12:06:21.715Z,99016.84
2022-09-23T12:08:51.258Z,99023.91
2022-09-23T12:11:30.456Z,99043.28
2022-09-23T12:14:10.405Z,99047.00
2022-09-23T12:16:43.471Z,99036.53
2022-09-23T12:19:19.346Z,99042.47
2022-09-23T12:22:04.597Z,99038.84
2022-09-23T12:24:40.357Z,99030.09
2022-09-23T12:27:11.062Z,99029.88
2022-09-23T12:29:38.816Z,99030.75
2022-09-23T12:32:10.170Z,99027.31
2022-09-23T12:34:49.040Z,99019.44
2022-09-23T12:37:24.158Z,99016.44
2022-09-23T12:39:50.845Z,98999.50
2022-09-23T12:42:19.583Z,98992.13
2022-09-23T12:44:47.673Z,98990.06
2022-09-23T12:47:14.295Z,98990.06
2022-09-23T12:49:44.365Z,98997.28
2022-09-23T12:52:10.950Z,98988.50
2022-09-23T12:54:38.618Z,98985.13
2022-09-23T12:57:34.474Z,98989.59
2022-09-23T13:00:22.583Z,98989.78
2022-09-23T13:03:12.199Z,98984.72
2022-09-23T13:06:01.564Z,98985.84
2022-09-23T13:08:29.009Z,98986.75
2022-09-23T13:11:01.138Z,98982.84
2022-09-23T13:13:45.546Z,98989.94
2022-09-23T13:16:12.158Z,98993.53
2022-09-23T13:18:55.669Z,98990.06
2022-09-23T13:21:40.918Z,98987.41
2022-09-23T13:24:13.473Z,98981.25
2022-09-23T13:26:44.898Z,98981.97
2022-09-23T13:29:17.067Z,98981.75
2022-09-23T13:31:45.511Z,98972.81
2022-09-23T13:34:15.522Z,98981.13
2022-09-23T13:36:46.412Z,98975.56
2022-09-23T13:39:13.979Z,98975.56
2022-09-23T13:41:42.289Z,98969.75
2022-09-23T13:44:13.255Z,98967.31
2022-09-23T13:46:45.880Z,98968.59
2022-09-23T13:49:26.749Z,98976.69
2022-09-23T13:51:54.253Z,98965.25
2022-09-23T13:54:28.966Z,98959.03
2022-09-23T13:56:56.699Z,98967.03
2022-09-23T13:59:30.962Z,98960.25
2022-09-23T14:02:17.994Z,98970.00
2022-09-23T14:04:44.666Z,98961.44
2022-09-23T14:07:13.249Z,98959.66
2022-09-23T14:09:44.934Z,98951.03
2022-09-23T14:12:12.368Z,98953.81
2022-09-23T14:14:40.675Z,98946.34
2022-09-23T14:17:08.451Z,98950.03
2022-09-23T14:19:36.017Z,98938.84
2022-09-23T14:22:03.029Z,98932.91
2022-09-23T14:24:29.585Z,98936.47
2022-09-23T14:26:56.214Z,98940.03
2022-09-23T14:29:28.900Z,98934.09
2022-09-23T14:31:57.318Z,98941.19
2022-09-23T14:34:42.982Z,98936.88
2022-09-23T14:37:34.059Z,98935.16
2022-09-23T14:40:01.030Z,98933.53
2022-09-23T14:42:39.127Z,98938.81
2022-09-23T14:45:06.281Z,98931.25
2022-09-23T14:47:34.542Z,98934.09
2022-09-23T14:50:19.489Z,98932.63
2022-09-23T14:52:52.118Z,98936.13
2022-09-23T14:55:18.823Z,98931.00
2022-09-23T14:57:45.899Z,98931.00
2022-09-23T15:00:13.075Z,98922.34
2022-09-23T15:02:42.447Z,98920.63
2022-09-23T15:05:14.716Z,98917.31
2022-09-23T15:07:41.875Z,98912.00
2022-09-23T15:10:13.297Z,98917.31
2022-09-23T15:12:40.380Z,98910.75
2022-09-23T15:15:12.298Z,98917.00
2022-09-23T15:17:39.426Z,98908.56
2022-09-23T15:20:17.507Z,98906.91
2022-09-23T15:22:45.166Z,98911.31
2022-09-23T15:25:22.557Z,98912.25
2022-09-23T15:27:59.836Z,98917.47
2022-09-23T15:30:26.443Z,98918.28
2022-09-23T15:32:53.726Z,98925.44
2022-09-23T15:35:21.714Z,98918.50
2022-09-23T15:37:49.983Z,98923.13
2022-09-23T15:40:27.287Z,98926.63
2022-09-23T15:42:56.195Z,98925.78
2022-09-23T15:45:30.730Z,98919.69
2022-09-23T15:48:02.208Z,98915.38
2022-09-23T15:50:29.529Z,98918.84
2022-09-23T15:52:56.153Z,98916.34
2022-09-23T15:55:23.656Z,98919.16
2022-09-23T15:57:50.564Z,98921.00
2022-09-23T16:00:17.395Z,98919.28
2022-09-23T16:02:45.450Z,98915.88
2022-09-23T16:05:25.115Z,98913.28
2022-09-23T16:07:52.512Z,98909.84
2022-09-23T16:10:20.653Z,98915.06
2022-09-23T16:12:47.804Z,98924.63
2022-09-23T16:15:16.993Z,98922.91
2022-09-23T16:17:45.418Z,98913.34
2022-09-23T16:20:13.439Z,98908.25
2022-09-23T16:22:40.079Z,98911.72
2022-09-23T16:25:09.302Z,98911.72
2022-09-23T16:27:35.959Z,98911.66
2022-09-23T16:30:02.902Z,98911.63
2022-09-23T16:32:30.191Z,98893.56
2022-09-23T16:34:58.655Z,98896.16
2022-09-23T16:37:25.297Z,98899.72
2022-09-23T16:39:52.069Z,98893.78
2022-09-23T16:42:18.663Z,98896.38
2022-09-23T16:44:45.355Z,98889.53
2022-09-23T16:47:11.963Z,98887.00
2022-09-23T16:49:38.591Z,98881.03
2022-09-23T16:52:05.493Z,98883.66
2022-09-23T16:54:32.115Z,98875.84
2022-09-23T16:56:59.141Z,98876.78
2022-09-23T16:59:45.680Z,98881.06
2022-09-23T17:02:30.723Z,98874.16
2022-09-23T17:04:57.411Z,98879.38
2022-09-23T17:07:24.074Z,98875.00
2022-09-23T17:09:50.766Z,98869.72
2022-09-23T17:12:22.918Z,98870.44
2022-09-23T17:14:49.546Z,98867.16
2022-09-23T17:17:16.127Z,98871.63
2022-09-23T17:19:42.772Z,98867.41
2022-09-23T17:22:10.065Z,98860.59
2022-09-23T17:24:36.754Z,98853.75
2022-09-23T17:27:03.539Z,98847.69
2022-09-23T17:29:30.614Z,98847.69
2022-09-23T17:31:58.150Z,98838.19
2022-09-23T17:34:25.220Z,98834.00
2022-09-23T17:36:51.828Z,98845.53
2022-09-23T17:39:18.581Z,98837.81
2022-09-23T17:41:45.590Z,98841.41
2022-09-23T17:44:12.308Z,98840.56
2022-09-23T17:46:38.922Z,98840.56
2022-09-23T17:49:06.875Z,98840.56
2022-09-23T17:51:33.640Z,98837.97
2022-09-23T17:54:00.240Z,98837.84
2022-09-23T17:56:26.965Z,98840.56
2022-09-23T17:58:53.833Z,98831.03
2022-09-23T18:01:22.417Z,98828.41
2022-09-23T18:03:53.000Z,98835.31
2022-09-23T18:06:20.732Z,98834.53
2022-09-23T18:08:48.889Z,98829.28
2022-09-23T18:11:22.162Z,98834.34
2022-09-23T18:13:50.099Z,98832.53
2022-09-23T18:16:17.187Z,98836.00
2022-09-23T18:18:44.740Z,98830.81
2022-09-23T18:21:11.440Z,98822.91
2022-09-23T18:23:38.144Z,98815.81
2022-09-23T18:26:04.888Z,98820.13
2022-09-23T18:28:34.836Z,98813.22
2022-09-23T18:31:01.798Z,98816.63
2022-09-23T18:33:28.434Z,98801.75
2022-09-23T18:35:55.047Z,98805.25
2022-09-23T18:38:21.750Z,98808.22
2022-09-23T18:40:54.361Z,98801.47
2022-09-23T18:43:24.578Z,98800.06
2022-09-23T18:46:18.854Z,98810.53
2022-09-23T18:49:04.286Z,98794.28
2022-09-23T18:51:32.208Z,98793.34
2022-09-23T18:54:00.453Z,98795.13
2022-09-23T18:56:37.162Z,98789.94
2022-09-23T18:59:07.840Z,98791.69
2022-09-23T19:01:34.698Z,98781.31
2022-09-23T19:04:04.602Z,98779.59
2022-09-23T19:06:32.685Z,98779.63
2022-09-23T19:08:59.405Z,98776.34
2022-09-23T19:11:26.793Z,98774.72
2022-09-23T19:13:57.542Z,98762.63
2022-09-23T19:16:26.730Z,98767.03
2022-09-23T19:18:53.694Z,98766.09
2022-09-23T19:21:21.590Z,98762.66
2022-09-23T19:23:49.791Z,98748.94
2022-09-23T19:26:17.777Z,98768.09
2022-09-23T19:28:50.450Z,98766.44
2022-09-23T19:31:18.819Z,98769.06
2022-09-23T19:33:53.178Z,98761.25
2022-09-23T19:36:23.126Z,98747.47
2022-09-23T19:38:52.643Z,98747.47
2022-09-23T19:41:20.146Z,98755.19
2022-09-23T19:43:48.961Z,98747.47
2022-09-23T19:46:16.111Z,98740.66
2022-09-23T19:48:43.046Z,98744.09
2022-09-23T19:51:09.813Z,98735.53
2022-09-23T19:53:36.454Z,98732.09
2022-09-23T19:56:06.272Z,98728.63
2022-09-23T19:58:33.194Z,98727.81
2022-09-23T20:00:59.826Z,98723.44
2022-09-23T20:03:27.167Z,98720.78
2022-09-23T20:05:57.058Z,98714.66
2022-09-23T20:08:24.278Z,98712.97
2022-09-23T20:10:50.951Z,98703.59
2022-09-23T20:13:17.657Z,98701.75
2022-09-23T20:15:45.246Z,98694.72
2022-09-23T20:18:11.914Z,98693.88
2022-09-23T20:20:38.503Z,98690.47
2022-09-23T20:23:05.210Z,98687.13
2022-09-23T20:25:51.796Z,98681.19
2022-09-23T20:28:18.525Z,98671.69
2022-09-23T20:30:45.167Z,98667.34
2022-09-23T20:33:15.188Z,98666.44
2022-09-23T20:35:44.060Z,98671.56
2022-09-23T20:38:10.643Z,98665.63
2022-09-23T20:40:38.601Z,98664.94
2022-09-23T20:43:05.364Z,98654.44
2022-09-23T20:45:32.086Z,98645.03
2022-09-23T20:48:01.344Z,98651.03
2022-09-23T20:50:27.963Z,98647.47
2022-09-23T20:52:54.560Z,98647.56
2022-09-23T20:55:21.221Z,98642.28
2022-09-23T20:57:48.692Z,98638.84
2022-09-23T21:00:15.631Z,98634.66
2022-09-23T21:02:43.502Z,98632.03
2022-09-23T21:05:10.595Z,98644.19
2022-09-23T21:07:37.690Z,98623.34
2022-09-23T21:10:06.955Z,98625.28
2022-09-23T21:12:33.593Z,98619.97
2022-09-23T21:15:00.269Z,98617.41
2022-09-23T21:17:27.034Z,98614.81
2022-09-23T21:19:53.609Z,98606.13
2022-09-23T21:22:20.217Z,98603.75
2022-09-23T21:25:31.557Z,98601.19
2022-09-23T21:27:37.248Z,98597.69
2022-09-23T21:30:04.472Z,98589.09
2022-09-23T21:32:31.295Z,98593.38
2022-09-23T21:34:57.877Z,98583.09
2022-09-23T21:37:25.564Z,98580.44
2022-09-23T21:40:10.696Z,98583.22
2022-09-23T21:42:37.366Z,98563.19
2022-09-23T21:45:05.205Z,98576.91
2022-09-23T21:47:32.467Z,98574.38
2022-09-23T21:49:59.125Z,98566.78
2022-09-23T21:52:25.693Z,98557.16
2022-09-23T21:54:52.303Z,98561.56
2022-09-23T21:57:18.874Z,98560.84
2022-09-23T21:59:46.342Z,98569.56
2022-09-23T22:02:12.925Z,98550.69
2022-09-23T22:04:39.770Z,98555.16
2022-09-23T22:07:06.394Z,98544.88
2022-09-23T22:09:32.949Z,98544.97
2022-09-23T22:12:07.693Z,98539.88
2022-09-23T22:14:34.715Z,98534.88
2022-09-23T22:17:02.953Z,98533.22
2022-09-23T22:19:35.658Z,98527.31
2022-09-23T22:22:06.023Z,98515.19
2022-09-23T22:24:32.700Z,98509.09
2022-09-23T22:26:59.324Z,98509.16
2022-09-23T22:29:44.711Z,98506.88
2022-09-23T22:32:30.134Z,98499.16
2022-09-23T22:34:56.883Z,98494.03
2022-09-23T22:37:30.610Z,98494.97
2022-09-23T22:39:57.224Z,98489.91
2022-09-23T22:42:23.946Z,98488.91
2022-09-23T22:44:50.858Z,98484.75
2022-09-23T22:47:18.187Z,98482.22
2022-09-23T22:49:45.861Z,98476.16
2022-09-23T22:52:12.521Z,98471.88
2022-09-23T22:54:39.149Z,98473.69
2022-09-23T22:57:09.223Z,98469.31
2022-09-23T22:59:37.382Z,98461.47
2022-09-23T23:02:04.236Z,98458.03
2022-09-23T23:04:31.145Z,98449.41
2022-09-23T23:06:58.815Z,98449.41
2022-09-23T23:09:25.693Z,98451.19
2022-09-23T23:11:52.358Z,98433.06
2022-09-23T23:14:19.258Z,98427.94
2022-09-23T23:16:46.387Z,98427.00
2022-09-23T23:19:14.651Z,98429.56
2022-09-23T23:21:43.484Z,98421.97
2022-09-23T23:24:17.259Z,98414.25
2022-09-23T23:26:44.010Z,98408.22
2022-09-23T23:29:11.849Z,98408.19
2022-09-23T23:31:38.826Z,98410.75
2022-09-23T23:34:06.111Z,98396.09
2022-09-23T23:36:32.881Z,98396.16
2022-09-23T23:38:59.516Z,98397.94
2022-09-23T23:41:26.152Z,98390.09
2022-09-23T23:43:56.607Z,98384.13
2022-09-23T23:46:25.531Z,98378.97
2022-09-23T23:48:52.783Z,98372.91
2022-09-23T23:51:19.809Z,98354.88
2022-09-23T23:53:47.539Z,98362.56
2022-09-23T23:56:19.169Z,98351.38
2022-09-23T23:58:46.191Z,98357.41
